sensor_id;sensor_type;location;lat;lon;timestamp;pressure;altitude;pressure_sealevel;temperature;humidity
44872;BME280;30602;51.060;17.226;2022-09-29T00:00:22;100112.32;;;4.62;96.77
44872;BME280;30602;51.060;17.226;2022-09-29T00:03:43;100115.23;;;4.54;96.40
44872;BME280;30602;51.060;17.226;2022-09-29T00:06:51;100117.63;;;4.42;95.92
44872;BME280;30602;51.060;17.226;2022-09-29T00:10:02;100102.31;;;4.27;96.76
44872;BME280;30602;51.060;17.226;2022-09-29T00:14:16;100118.41;;;4.42;97.31
44872;BME280;30602;51.060;17.226;2022-09-29T00:17:52;100124.68;;;4.45;97.27
44872;BME280;30602;51.060;17.226;2022-09-29T00:21:08;100124.44;;;4.52;97.87
44872;BME280;30602;51.060;17.226;2022-09-29T00:24:40;100125.66;;;4.61;98.39
44872;BME280;30602;51.060;17.226;2022-09-29T00:27:53;100118.76;;;4.64;98.71
44872;BME280;30602;51.060;17.226;2022-09-29T00:31:22;100125.48;;;4.61;98.40
44872;BME280;30602;51.060;17.226;2022-09-29T00:35:04;100128.63;;;4.54;98.60
44872;BME280;30602;51.060;17.226;2022-09-29T00:38:39;100119.73;;;4.62;98.53
44872;BME280;30602;51.060;17.226;2022-09-29T00:42:20;100122.16;;;4.61;98.20
44872;BME280;30602;51.060;17.226;2022-09-29T00:45:55;100118.13;;;4.49;97.20
44872;BME280;30602;51.060;17.226;2022-09-29T00:49:40;100120.68;;;4.43;96.91
44872;BME280;30602;51.060;17.226;2022-09-29T00:53:04;100110.70;;;4.34;96.59
44872;BME280;30602;51.060;17.226;2022-09-29T00:56:22;100125.23;;;4.36;96.81
44872;BME280;30602;51.060;17.226;2022-09-29T00:59:51;100124.27;;;4.28;96.80
44872;BME280;30602;51.060;17.226;2022-09-29T01:03:42;100122.02;;;4.25;96.95
44872;BME280;30602;51.060;17.226;2022-09-29T01:07:22;100129.48;;;4.30;97.05
44872;BME280;30602;51.060;17.226;2022-09-29T01:11:01;100131.95;;;4.26;97.39
44872;BME280;30602;51.060;17.226;2022-09-29T01:14:36;100136.63;;;4.21;97.46
44872;BME280;30602;51.060;17.226;2022-09-29T01:17:53;100124.87;;;4.09;97.41
44872;BME280;30602;51.060;17.226;2022-09-29T01:25:28;100146.53;;;4.10;96.86
44872;BME280;30602;51.060;17.226;2022-09-29T01:43:48;100158.67;;;4.04;97.29
44872;BME280;30602;51.060;17.226;2022-09-29T01:47:46;100158.33;;;4.01;97.26
44872;BME280;30602;51.060;17.226;2022-09-29T01:51:12;100169.40;;;3.99;96.98
44872;BME280;30602;51.060;17.226;2022-09-29T01:54:47;100174.99;;;3.92;97.08
44872;BME280;30602;51.060;17.226;2022-09-29T01:58:06;100174.76;;;3.86;98.08
44872;BME280;30602;51.060;17.226;2022-09-29T02:01:23;100171.36;;;3.85;98.55
44872;BME280;30602;51.060;17.226;2022-09-29T02:12:28;100181.60;;;3.96;97.79
44872;BME280;30602;51.060;17.226;2022-09-29T02:16:18;100180.75;;;3.96;97.41
44872;BME280;30602;51.060;17.226;2022-09-29T02:20:19;100176.91;;;3.92;97.03
44872;BME280;30602;51.060;17.226;2022-09-29T02:24:12;100173.37;;;3.88;96.89
44872;BME280;30602;51.060;17.226;2022-09-29T02:31:38;100179.09;;;3.82;96.55
44872;BME280;30602;51.060;17.226;2022-09-29T02:35:09;100182.54;;;3.61;96.00
44872;BME280;30602;51.060;17.226;2022-09-29T02:53:57;100161.40;;;3.53;97.09
44872;BME280;30602;51.060;17.226;2022-09-29T02:57:56;100168.07;;;3.63;97.15
44872;BME280;30602;51.060;17.226;2022-09-29T03:01:30;100175.22;;;3.63;97.19
44872;BME280;30602;51.060;17.226;2022-09-29T03:04:38;100177.89;;;3.61;97.11
44872;BME280;30602;51.060;17.226;2022-09-29T03:07:51;100178.34;;;3.53;96.88
44872;BME280;30602;51.060;17.226;2022-09-29T03:11:48;100182.84;;;3.36;96.19
44872;BME280;30602;51.060;17.226;2022-09-29T03:15:30;100191.23;;;3.36;96.57
44872;BME280;30602;51.060;17.226;2022-09-29T03:19:12;100192.21;;;3.40;96.77
44872;BME280;30602;51.060;17.226;2022-09-29T03:22:43;100192.73;;;3.33;97.10
44872;BME280;30602;51.060;17.226;2022-09-29T03:25:58;100194.56;;;3.29;96.90
44872;BME280;30602;51.060;17.226;2022-09-29T03:29:29;100194.69;;;3.28;97.07
44872;BME280;30602;51.060;17.226;2022-09-29T03:32:53;100199.90;;;3.35;97.54
44872;BME280;30602;51.060;17.226;2022-09-29T03:37:10;100203.49;;;3.35;98.00
44872;BME280;30602;51.060;17.226;2022-09-29T03:40:25;100206.53;;;3.55;98.66
44872;BME280;30602;51.060;17.226;2022-09-29T03:43:36;100206.94;;;3.61;98.41
44872;BME280;30602;51.060;17.226;2022-09-29T03:47:46;100207.45;;;3.62;98.26
44872;BME280;30602;51.060;17.226;2022-09-29T03:51:30;100212.34;;;3.60;97.91
44872;BME280;30602;51.060;17.226;2022-09-29T03:54:44;100199.63;;;3.41;97.02
44872;BME280;30602;51.060;17.226;2022-09-29T03:58:13;100209.30;;;3.39;97.03
44872;BME280;30602;51.060;17.226;2022-09-29T04:01:59;100207.02;;;3.39;97.38
44872;BME280;30602;51.060;17.226;2022-09-29T04:05:46;100208.43;;;3.44;97.91
44872;BME280;30602;51.060;17.226;2022-09-29T04:09:02;100215.88;;;3.49;98.19
44872;BME280;30602;51.060;17.226;2022-09-29T04:12:31;100218.41;;;3.50;98.17
44872;BME280;30602;51.060;17.226;2022-09-29T04:16:05;100218.18;;;3.49;98.31
44872;BME280;30602;51.060;17.226;2022-09-29T04:19:37;100220.59;;;3.42;97.73
44872;BME280;30602;51.060;17.226;2022-09-29T04:22:51;100220.09;;;3.30;97.18
44872;BME280;30602;51.060;17.226;2022-09-29T04:26:22;100213.74;;;3.28;97.36
44872;BME280;30602;51.060;17.226;2022-09-29T04:29:52;100221.62;;;3.42;98.34
44872;BME280;30602;51.060;17.226;2022-09-29T04:33:30;100228.24;;;3.45;98.56
44872;BME280;30602;51.060;17.226;2022-09-29T04:36:42;100230.12;;;3.48;98.58
44872;BME280;30602;51.060;17.226;2022-09-29T04:40:04;100233.16;;;3.43;98.23
44872;BME280;30602;51.060;17.226;2022-09-29T04:43:15;100234.43;;;3.43;97.97
44872;BME280;30602;51.060;17.226;2022-09-29T04:46:43;100237.63;;;3.41;97.89
44872;BME280;30602;51.060;17.226;2022-09-29T04:50:24;100242.95;;;3.40;97.84
44872;BME280;30602;51.060;17.226;2022-09-29T04:53:52;100245.53;;;3.36;97.71
44872;BME280;30602;51.060;17.226;2022-09-29T04:57:03;100249.58;;;3.35;97.87
44872;BME280;30602;51.060;17.226;2022-09-29T05:00:14;100248.68;;;3.32;98.19
44872;BME280;30602;51.060;17.226;2022-09-29T05:03:51;100246.18;;;3.33;98.77
44872;BME280;30602;51.060;17.226;2022-09-29T05:07:14;100243.63;;;3.38;98.59
44872;BME280;30602;51.060;17.226;2022-09-29T05:10:25;100248.09;;;3.26;97.64
44872;BME280;30602;51.060;17.226;2022-09-29T05:13:56;100244.05;;;3.37;98.46
44872;BME280;30602;51.060;17.226;2022-09-29T05:18:03;100246.07;;;3.46;99.14
44872;BME280;30602;51.060;17.226;2022-09-29T05:21:32;100249.09;;;3.48;99.18
44872;BME280;30602;51.060;17.226;2022-09-29T05:24:45;100251.69;;;3.51;99.21
44872;BME280;30602;51.060;17.226;2022-09-29T05:27:57;100251.14;;;3.50;99.58
44872;BME280;30602;51.060;17.226;2022-09-29T05:31:38;100243.92;;;3.42;99.77
44872;BME280;30602;51.060;17.226;2022-09-29T05:34:51;100255.36;;;3.53;99.99
44872;BME280;30602;51.060;17.226;2022-09-29T05:38:02;100263.04;;;3.63;99.92
44872;BME280;30602;51.060;17.226;2022-09-29T05:41:15;100265.88;;;3.62;99.64
44872;BME280;30602;51.060;17.226;2022-09-29T05:44:30;100271.27;;;3.67;99.73
44872;BME280;30602;51.060;17.226;2022-09-29T05:47:52;100269.95;;;3.68;99.85
44872;BME280;30602;51.060;17.226;2022-09-29T05:51:31;100269.78;;;3.69;99.99
44872;BME280;30602;51.060;17.226;2022-09-29T05:55:01;100268.80;;;3.75;100.00
44872;BME280;30602;51.060;17.226;2022-09-29T05:58:47;100261.73;;;3.78;100.00
44872;BME280;30602;51.060;17.226;2022-09-29T06:02:08;100276.89;;;3.91;99.85
44872;BME280;30602;51.060;17.226;2022-09-29T06:05:39;100283.08;;;3.99;99.97
44872;BME280;30602;51.060;17.226;2022-09-29T06:08:52;100286.20;;;4.05;99.98
44872;BME280;30602;51.060;17.226;2022-09-29T06:12:22;100289.73;;;4.13;100.00
44872;BME280;30602;51.060;17.226;2022-09-29T06:16:17;100289.84;;;4.11;100.00
44872;BME280;30602;51.060;17.226;2022-09-29T06:20:25;100287.95;;;4.15;100.00
44872;BME280;30602;51.060;17.226;2022-09-29T06:23:54;100288.97;;;4.32;100.00
44872;BME280;30602;51.060;17.226;2022-09-29T06:27:07;100289.47;;;4.38;100.00
44872;BME280;30602;51.060;17.226;2022-09-29T06:30:50;100291.50;;;4.43;100.00
44872;BME280;30602;51.060;17.226;2022-09-29T06:34:25;100299.09;;;4.52;100.00
44872;BME280;30602;51.060;17.226;2022-09-29T06:38:00;100303.85;;;4.74;100.00
44872;BME280;30602;51.060;17.226;2022-09-29T06:41:29;100309.86;;;4.98;100.00
44872;BME280;30602;51.060;17.226;2022-09-29T06:45:05;100307.25;;;5.25;100.00
44872;BME280;30602;51.060;17.226;2022-09-29T06:48:53;100304.27;;;5.64;100.00
44872;BME280;30602;51.060;17.226;2022-09-29T06:52:40;100297.45;;;5.82;100.00
44872;BME280;30602;51.060;17.226;2022-09-29T06:56:11;100300.61;;;5.96;100.00
44872;BME280;30602;51.060;17.226;2022-09-29T06:59:43;100304.79;;;6.13;100.00
44872;BME280;30602;51.060;17.226;2022-09-29T07:02:54;100294.28;;;6.18;100.00
44872;BME280;30602;51.060;17.226;2022-09-29T07:06:37;100309.82;;;6.40;100.00
44872;BME280;30602;51.060;17.226;2022-09-29T07:10:26;100312.42;;;6.59;100.00
44872;BME280;30602;51.060;17.226;2022-09-29T07:14:00;100311.56;;;6.87;100.00
44872;BME280;30602;51.060;17.226;2022-09-29T07:17:39;100316.43;;;6.99;100.00
44872;BME280;30602;51.060;17.226;2022-09-29T07:21:10;100321.31;;;7.09;100.00
44872;BME280;30602;51.060;17.226;2022-09-29T07:24:44;100319.20;;;7.27;100.00
44872;BME280;30602;51.060;17.226;2022-09-29T07:27:58;100318.89;;;7.51;100.00
44872;BME280;30602;51.060;17.226;2022-09-29T07:31:16;100318.17;;;7.48;100.00
44872;BME280;30602;51.060;17.226;2022-09-29T07:34:50;100325.06;;;7.63;100.00
44872;BME280;30602;51.060;17.226;2022-09-29T07:38:20;100326.00;;;7.73;100.00
44872;BME280;30602;51.060;17.226;2022-09-29T07:41:34;100320.18;;;8.03;100.00
44872;BME280;30602;51.060;17.226;2022-09-29T07:45:34;100322.34;;;8.17;100.00
44872;BME280;30602;51.060;17.226;2022-09-29T07:48:46;100327.31;;;8.31;100.00
44872;BME280;30602;51.060;17.226;2022-09-29T07:52:29;100324.70;;;8.41;100.00
44872;BME280;30602;51.060;17.226;2022-09-29T07:55:40;100327.12;;;8.58;100.00
44872;BME280;30602;51.060;17.226;2022-09-29T07:59:16;100324.41;;;8.62;99.58
44872;BME280;30602;51.060;17.226;2022-09-29T08:02:28;100327.32;;;8.64;99.64
44872;BME280;30602;51.060;17.226;2022-09-29T08:09:56;100320.02;;;8.94;98.20
44872;BME280;30602;51.060;17.226;2022-09-29T08:13:28;100322.86;;;8.97;97.57
44872;BME280;30602;51.060;17.226;2022-09-29T08:16:54;100326.80;;;9.14;97.65
44872;BME280;30602;51.060;17.226;2022-09-29T08:20:38;100328.74;;;9.10;96.46
44872;BME280;30602;51.060;17.226;2022-09-29T08:24:21;100330.35;;;9.26;96.72
44872;BME280;30602;51.060;17.226;2022-09-29T08:28:04;100332.45;;;9.30;91.92
44872;BME280;30602;51.060;17.226;2022-09-29T08:32:52;100334.76;;;9.43;89.91
44872;BME280;30602;51.060;17.226;2022-09-29T08:36:21;100338.62;;;9.51;89.34
44872;BME280;30602;51.060;17.226;2022-09-29T08:40:11;100335.14;;;9.70;89.44
44872;BME280;30602;51.060;17.226;2022-09-29T08:43:40;100337.91;;;9.79;90.87
44872;BME280;30602;51.060;17.226;2022-09-29T08:47:35;100332.41;;;9.84;89.97
44872;BME280;30602;51.060;17.226;2022-09-29T08:51:24;100332.58;;;9.81;86.12
44872;BME280;30602;51.060;17.226;2022-09-29T08:57:52;100345.09;;;9.99;88.16
44872;BME280;30602;51.060;17.226;2022-09-29T09:01:44;100347.34;;;10.04;87.27
44872;BME280;30602;51.060;17.226;2022-09-29T09:23:20;100345.89;;;10.55;80.57
44872;BME280;30602;51.060;17.226;2022-09-29T09:37:49;100360.48;;;10.79;86.00
44872;BME280;30602;51.060;17.226;2022-09-29T09:41:33;100366.66;;;10.83;82.25
44872;BME280;30602;51.060;17.226;2022-09-29T09:45:26;100372.18;;;11.04;80.63
44872;BME280;30602;51.060;17.226;2022-09-29T09:52:45;100371.84;;;11.23;82.02
44872;BME280;30602;51.060;17.226;2022-09-29T09:56:37;100370.09;;;11.46;80.61
44872;BME280;30602;51.060;17.226;2022-09-29T10:03:30;100366.41;;;11.53;77.35
44872;BME280;30602;51.060;17.226;2022-09-29T10:07:12;100365.83;;;11.55;74.69
44872;BME280;30602;51.060;17.226;2022-09-29T10:10:42;100365.78;;;11.69;72.06
44872;BME280;30602;51.060;17.226;2022-09-29T10:14:35;100365.95;;;11.66;74.70
44872;BME280;30602;51.060;17.226;2022-09-29T10:18:09;100362.48;;;11.74;71.30
44872;BME280;30602;51.060;17.226;2022-09-29T10:25:16;100373.78;;;11.87;72.17
44872;BME280;30602;51.060;17.226;2022-09-29T10:32:24;100369.76;;;11.88;71.42
44872;BME280;30602;51.060;17.226;2022-09-29T10:36:08;100368.24;;;11.84;72.61
44872;BME280;30602;51.060;17.226;2022-09-29T10:39:50;100377.23;;;11.77;75.11
44872;BME280;30602;51.060;17.226;2022-09-29T10:43:40;100376.44;;;11.74;77.26
44872;BME280;30602;51.060;17.226;2022-09-29T10:47:15;100381.48;;;11.64;76.04
44872;BME280;30602;51.060;17.226;2022-09-29T10:50:53;100378.14;;;11.56;73.99
44872;BME280;30602;51.060;17.226;2022-09-29T10:54:28;100378.30;;;11.73;73.58
44872;BME280;30602;51.060;17.226;2022-09-29T10:57:44;100374.59;;;11.86;72.01
44872;BME280;30602;51.060;17.226;2022-09-29T11:01:19;100378.77;;;11.97;71.26
44872;BME280;30602;51.060;17.226;2022-09-29T11:05:14;100381.33;;;12.17;70.87
44872;BME280;30602;51.060;17.226;2022-09-29T11:12:35;100377.41;;;12.28;70.78
44872;BME280;30602;51.060;17.226;2022-09-29T11:16:17;100380.82;;;12.05;64.91
44872;BME280;30602;51.060;17.226;2022-09-29T11:19:50;100382.36;;;12.12;67.64
44872;BME280;30602;51.060;17.226;2022-09-29T11:23:33;100384.41;;;12.16;69.12
44872;BME280;30602;51.060;17.226;2022-09-29T11:30:22;100382.77;;;12.45;69.37
44872;BME280;30602;51.060;17.226;2022-09-29T11:45:13;100371.57;;;13.03;67.27
44872;BME280;30602;51.060;17.226;2022-09-29T11:52:40;100376.60;;;13.28;68.22
44872;BME280;30602;51.060;17.226;2022-09-29T12:00:10;100377.57;;;13.70;65.46
44872;BME280;30602;51.060;17.226;2022-09-29T12:06:54;100367.41;;;13.89;62.14
44872;BME280;30602;51.060;17.226;2022-09-29T12:18:41;100363.31;;;14.02;59.73
44872;BME280;30602;51.060;17.226;2022-09-29T12:21:52;100361.26;;;13.98;63.29
44872;BME280;30602;51.060;17.226;2022-09-29T12:25:04;100365.02;;;14.01;62.52
44872;BME280;30602;51.060;17.226;2022-09-29T12:28:19;100371.59;;;13.61;59.17
44872;BME280;30602;51.060;17.226;2022-09-29T12:31:50;100373.88;;;13.44;63.74
44872;BME280;30602;51.060;17.226;2022-09-29T12:35:39;100376.81;;;13.16;64.52
44872;BME280;30602;51.060;17.226;2022-09-29T12:46:09;100383.38;;;13.30;60.96
44872;BME280;30602;51.060;17.226;2022-09-29T13:00:34;100379.25;;;12.93;66.42
44872;BME280;30602;51.060;17.226;2022-09-29T13:21:35;100386.63;;;13.26;65.39
44872;BME280;30602;51.060;17.226;2022-09-29T13:31:36;100388.30;;;13.28;59.94
44872;BME280;30602;51.060;17.226;2022-09-29T13:35:37;100389.70;;;13.27;60.95
44872;BME280;30602;51.060;17.226;2022-09-29T13:38:57;100392.10;;;13.22;60.64
44872;BME280;30602;51.060;17.226;2022-09-29T13:45:39;100393.60;;;13.42;61.79
44872;BME280;30602;51.060;17.226;2022-09-29T13:52:38;100400.48;;;13.22;58.31
44872;BME280;30602;51.060;17.226;2022-09-29T14:00:01;100394.83;;;12.92;64.87
44872;BME280;30602;51.060;17.226;2022-09-29T14:03:23;100399.91;;;12.79;65.72
44872;BME280;30602;51.060;17.226;2022-09-29T14:07:45;100405.27;;;12.72;68.71
44872;BME280;30602;51.060;17.226;2022-09-29T14:14:51;100399.41;;;12.44;69.78
44872;BME280;30602;51.060;17.226;2022-09-29T14:18:13;100407.43;;;12.50;65.30
44872;BME280;30602;51.060;17.226;2022-09-29T14:25:51;100419.41;;;12.79;64.28
44872;BME280;30602;51.060;17.226;2022-09-29T14:29:31;100421.19;;;12.71;62.67
44872;BME280;30602;51.060;17.226;2022-09-29T14:33:39;100420.27;;;12.68;63.12
44872;BME280;30602;51.060;17.226;2022-09-29T14:37:27;100420.23;;;12.61;62.66
44872;BME280;30602;51.060;17.226;2022-09-29T14:41:21;100421.07;;;12.66;62.63
44872;BME280;30602;51.060;17.226;2022-09-29T14:45:15;100422.76;;;12.76;60.01
44872;BME280;30602;51.060;17.226;2022-09-29T14:48:47;100427.76;;;12.73;59.80
44872;BME280;30602;51.060;17.226;2022-09-29T14:56:09;100428.29;;;12.85;59.11
44872;BME280;30602;51.060;17.226;2022-09-29T14:59:55;100428.38;;;12.75;60.53
44872;BME280;30602;51.060;17.226;2022-09-29T15:07:25;100427.53;;;12.61;59.61
44872;BME280;30602;51.060;17.226;2022-09-29T15:10:49;100423.96;;;12.62;60.21
44872;BME280;30602;51.060;17.226;2022-09-29T15:14:34;100432.95;;;12.58;57.60
44872;BME280;30602;51.060;17.226;2022-09-29T15:29:36;100443.04;;;12.62;64.22
44872;BME280;30602;51.060;17.226;2022-09-29T15:32:49;100450.41;;;12.44;67.98
44872;BME280;30602;51.060;17.226;2022-09-29T15:36:35;100448.08;;;12.12;69.95
44872;BME280;30602;51.060;17.226;2022-09-29T15:40:14;100449.59;;;11.84;73.66
44872;BME280;30602;51.060;17.226;2022-09-29T15:43:28;100454.96;;;11.58;76.33
44872;BME280;30602;51.060;17.226;2022-09-29T15:47:39;100457.84;;;11.36;76.38
44872;BME280;30602;51.060;17.226;2022-09-29T15:51:33;100462.50;;;11.21;79.29
44872;BME280;30602;51.060;17.226;2022-09-29T15:55:05;100469.62;;;10.97;80.37
44872;BME280;30602;51.060;17.226;2022-09-29T16:01:37;100477.05;;;10.70;81.39
44872;BME280;30602;51.060;17.226;2022-09-29T16:05:03;100483.03;;;10.56;82.32
44872;BME280;30602;51.060;17.226;2022-09-29T16:08:35;100488.01;;;10.45;82.87
44872;BME280;30602;51.060;17.226;2022-09-29T16:12:16;100495.52;;;10.42;82.18
44872;BME280;30602;51.060;17.226;2022-09-29T16:16:10;100505.49;;;10.30;82.98
44872;BME280;30602;51.060;17.226;2022-09-29T16:19:22;100513.93;;;10.17;84.54
44872;BME280;30602;51.060;17.226;2022-09-29T16:22:37;100515.91;;;9.94;85.23
44872;BME280;30602;51.060;17.226;2022-09-29T16:26:13;100521.66;;;9.74;86.06
44872;BME280;30602;51.060;17.226;2022-09-29T16:29:33;100528.99;;;9.58;86.48
44872;BME280;30602;51.060;17.226;2022-09-29T16:36:34;100544.30;;;9.47;87.76
44872;BME280;30602;51.060;17.226;2022-09-29T16:47:36;100546.82;;;9.10;89.14
44872;BME280;30602;51.060;17.226;2022-09-29T16:50:55;100551.72;;;9.09;90.04
44872;BME280;30602;51.060;17.226;2022-09-29T16:54:27;100554.42;;;8.99;90.36
44872;BME280;30602;51.060;17.226;2022-09-29T16:58:13;100554.98;;;8.87;90.60
44872;BME280;30602;51.060;17.226;2022-09-29T17:01:24;100565.29;;;8.73;90.42
44872;BME280;30602;51.060;17.226;2022-09-29T17:04:34;100568.52;;;8.56;89.88
44872;BME280;30602;51.060;17.226;2022-09-29T17:07:46;100566.09;;;8.51;90.03
44872;BME280;30602;51.060;17.226;2022-09-29T17:10:57;100577.39;;;8.47;90.28
44872;BME280;30602;51.060;17.226;2022-09-29T17:14:49;100582.97;;;8.46;90.84
44872;BME280;30602;51.060;17.226;2022-09-29T17:18:11;100585.68;;;8.35;91.09
44872;BME280;30602;51.060;17.226;2022-09-29T17:21:22;100582.85;;;8.19;91.15
44872;BME280;30602;51.060;17.226;2022-09-29T17:24:54;100590.23;;;8.19;91.94
44872;BME280;30602;51.060;17.226;2022-09-29T17:28:36;100594.55;;;8.21;92.81
44872;BME280;30602;51.060;17.226;2022-09-29T17:31:45;100601.51;;;8.24;93.30
44872;BME280;30602;51.060;17.226;2022-09-29T17:35:18;100600.19;;;8.16;93.60
44872;BME280;30602;51.060;17.226;2022-09-29T17:39:10;100605.05;;;8.04;93.61
44872;BME280;30602;51.060;17.226;2022-09-29T17:42:46;100606.60;;;7.98;93.18
44872;BME280;30602;51.060;17.226;2022-09-29T17:46:27;100615.56;;;7.89;92.52
44872;BME280;30602;51.060;17.226;2022-09-29T17:50:35;100613.55;;;7.82;92.69
44872;BME280;30602;51.060;17.226;2022-09-29T17:54:31;100617.65;;;7.74;93.04
44872;BME280;30602;51.060;17.226;2022-09-29T17:57:42;100621.45;;;7.65;92.32
44872;BME280;30602;51.060;17.226;2022-09-29T18:01:18;100624.52;;;7.52;92.37
44872;BME280;30602;51.060;17.226;2022-09-29T18:04:45;100629.82;;;7.47;92.71
44872;BME280;30602;51.060;17.226;2022-09-29T18:08:01;100633.66;;;7.39;92.58
44872;BME280;30602;51.060;17.226;2022-09-29T18:11:12;100633.88;;;7.30;92.40
44872;BME280;30602;51.060;17.226;2022-09-29T18:14:23;100637.02;;;7.25;92.86
44872;BME280;30602;51.060;17.226;2022-09-29T18:17:34;100641.90;;;7.21;93.49
44872;BME280;30602;51.060;17.226;2022-09-29T18:21:19;100642.77;;;7.22;93.38
44872;BME280;30602;51.060;17.226;2022-09-29T18:24:33;100643.69;;;7.23;93.55
44872;BME280;30602;51.060;17.226;2022-09-29T18:27:48;100638.87;;;7.18;93.58
44872;BME280;30602;51.060;17.226;2022-09-29T18:32:05;100606.83;;;6.95;93.74
44872;BME280;30602;51.060;17.226;2022-09-29T18:35:18;100634.98;;;7.18;94.11
44872;BME280;30602;51.060;17.226;2022-09-29T18:38:26;100636.14;;;7.10;94.05
44872;BME280;30602;51.060;17.226;2022-09-29T18:41:59;100640.20;;;7.07;94.76
44872;BME280;30602;51.060;17.226;2022-09-29T18:45:38;100638.41;;;7.10;95.64
44872;BME280;30602;51.060;17.226;2022-09-29T18:49:24;100640.23;;;7.04;95.07
44872;BME280;30602;51.060;17.226;2022-09-29T18:52:58;100646.77;;;7.04;95.17
44872;BME280;30602;51.060;17.226;2022-09-29T18:56:28;100654.66;;;7.03;95.51
44872;BME280;30602;51.060;17.226;2022-09-29T18:59:51;100653.29;;;7.18;96.33
44872;BME280;30602;51.060;17.226;2022-09-29T19:03:23;100652.09;;;7.26;96.79
44872;BME280;30602;51.060;17.226;2022-09-29T19:06:40;100653.63;;;7.30;96.78
44872;BME280;30602;51.060;17.226;2022-09-29T19:10:16;100651.31;;;7.24;96.50
44872;BME280;30602;51.060;17.226;2022-09-29T19:13:47;100637.56;;;7.01;95.31
44872;BME280;30602;51.060;17.226;2022-09-29T19:17:40;100658.45;;;7.02;94.77
44872;BME280;30602;51.060;17.226;2022-09-29T19:20:55;100660.49;;;6.97;95.04
44872;BME280;30602;51.060;17.226;2022-09-29T19:24:29;100660.09;;;6.91;95.09
44872;BME280;30602;51.060;17.226;2022-09-29T19:28:07;100664.20;;;6.93;95.63
44872;BME280;30602;51.060;17.226;2022-09-29T19:31:39;100667.23;;;6.86;95.67
44872;BME280;30602;51.060;17.226;2022-09-29T19:35:03;100666.69;;;6.71;95.00
44872;BME280;30602;51.060;17.226;2022-09-29T19:38:14;100674.34;;;6.68;94.23
44872;BME280;30602;51.060;17.226;2022-09-29T19:42:10;100673.68;;;6.56;94.12
44872;BME280;30602;51.060;17.226;2022-09-29T19:45:42;100677.96;;;6.58;94.80
44872;BME280;30602;51.060;17.226;2022-09-29T19:48:53;100679.10;;;6.63;95.45
44872;BME280;30602;51.060;17.226;2022-09-29T19:52:37;100677.25;;;6.61;96.07
44872;BME280;30602;51.060;17.226;2022-09-29T19:56:13;100672.87;;;6.56;96.02
44872;BME280;30602;51.060;17.226;2022-09-29T19:59:31;100677.33;;;6.51;95.98
44872;BME280;30602;51.060;17.226;2022-09-29T20:03:52;100677.37;;;6.45;95.89
44872;BME280;30602;51.060;17.226;2022-09-29T20:06:59;100690.90;;;6.46;95.28
44872;BME280;30602;51.060;17.226;2022-09-29T20:10:35;100690.33;;;6.25;94.83
44872;BME280;30602;51.060;17.226;2022-09-29T20:13:49;100695.13;;;6.16;94.45
44872;BME280;30602;51.060;17.226;2022-09-29T20:21:05;100703.27;;;6.13;94.21
44872;BME280;30602;51.060;17.226;2022-09-29T20:24:51;100706.16;;;6.01;93.61
44872;BME280;30602;51.060;17.226;2022-09-29T20:28:27;100703.71;;;5.91;93.42
44872;BME280;30602;51.060;17.226;2022-09-29T20:31:44;100712.02;;;5.92;93.97
44872;BME280;30602;51.060;17.226;2022-09-29T20:35:00;100714.80;;;5.98;95.17
44872;BME280;30602;51.060;17.226;2022-09-29T20:38:20;100705.17;;;5.75;94.45
44872;BME280;30602;51.060;17.226;2022-09-29T20:41:53;100717.18;;;5.78;94.10
44872;BME280;30602;51.060;17.226;2022-09-29T20:45:10;100720.07;;;5.74;94.47
44872;BME280;30602;51.060;17.226;2022-09-29T20:49:16;100720.55;;;5.72;94.81
44872;BME280;30602;51.060;17.226;2022-09-29T20:52:47;100729.30;;;5.65;94.54
44872;BME280;30602;51.060;17.226;2022-09-29T20:56:27;100741.19;;;5.65;95.09
44872;BME280;30602;51.060;17.226;2022-09-29T21:00:03;100743.60;;;5.83;96.08
44872;BME280;30602;51.060;17.226;2022-09-29T21:04:03;100749.16;;;5.92;96.38
44872;BME280;30602;51.060;17.226;2022-09-29T21:07:35;100741.92;;;5.97;96.65
44872;BME280;30602;51.060;17.226;2022-09-29T21:11:22;100746.12;;;5.98;96.61
44872;BME280;30602;51.060;17.226;2022-09-29T21:15:43;100761.42;;;6.18;97.06
44872;BME280;30602;51.060;17.226;2022-09-29T21:18:53;100769.09;;;6.11;96.77
44872;BME280;30602;51.060;17.226;2022-09-29T21:22:01;100772.43;;;6.00;96.56
44872;BME280;30602;51.060;17.226;2022-09-29T21:25:38;100769.70;;;5.92;96.40
44872;BME280;30602;51.060;17.226;2022-09-29T21:29:21;100778.38;;;5.96;97.13
44872;BME280;30602;51.060;17.226;2022-09-29T21:32:32;100786.80;;;6.04;97.67
44872;BME280;30602;51.060;17.226;2022-09-29T21:36:04;100786.30;;;6.01;98.01
44872;BME280;30602;51.060;17.226;2022-09-29T21:39:38;100787.13;;;6.08;98.25
44872;BME280;30602;51.060;17.226;2022-09-29T21:42:58;100787.83;;;6.16;98.52
44872;BME280;30602;51.060;17.226;2022-09-29T21:46:07;100790.88;;;6.16;98.32
44872;BME280;30602;51.060;17.226;2022-09-29T21:49:41;100792.07;;;6.05;97.86
44872;BME280;30602;51.060;17.226;2022-09-29T21:52:51;100788.66;;;5.87;96.75
44872;BME280;30602;51.060;17.226;2022-09-29T21:56:36;100794.56;;;5.85;96.76
44872;BME280;30602;51.060;17.226;2022-09-29T22:00:14;100795.21;;;5.87;97.70
44872;BME280;30602;51.060;17.226;2022-09-29T22:03:27;100787.81;;;5.92;98.89
44872;BME280;30602;51.060;17.226;2022-09-29T22:07:04;100795.59;;;6.01;99.20
44872;BME280;30602;51.060;17.226;2022-09-29T22:10:26;100801.58;;;6.04;99.43
44872;BME280;30602;51.060;17.226;2022-09-29T22:14:24;100804.22;;;6.06;99.21